Time;durP1;ratioP1;P1;durP2;ratioP2;P2;SDS_P1;SDS_P2;PMS_P1;PMS_P2;Temp;Humidity;BMP_temperature;BMP_pressure;BME280_temperature;BME280_humidity;BME280_pressure;Samples;Min_cycle;Max_cycle;Signal;HPM_P1;HPM_P2
2023/05/12 00:00:03;;;;;;;54.10;20.42;;;13.30;99.90;;;;;;5109258;28;20116;-62
2023/05/12 00:02:28;;;;;;;56.15;19.08;;;13.30;99.90;;;;;;5106777;28;20459;-62
2023/05/12 00:04:54;;;;;;;52.67;18.17;;;13.20;99.90;;;;;;5108237;28;20027;-62
2023/05/12 00:07:20;;;;;;;49.70;17.40;;;13.20;99.90;;;;;;5108268;28;20032;-64
2023/05/12 00:09:45;;;;;;;48.90;17.35;;;13.10;99.90;;;;;;5105680;28;20456;-62
2023/05/12 00:12:11;;;;;;;55.20;17.92;;;13.10;99.90;;;;;;5107158;28;20023;-62
2023/05/12 00:14:37;;;;;;;61.20;19.42;;;13.10;99.90;;;;;;5110325;28;20058;-62
2023/05/12 00:17:03;;;;;;;51.05;19.60;;;13.10;99.90;;;;;;5101310;28;20020;-62
2023/05/12 00:19:29;;;;;;;58.95;20.05;;;13.10;99.90;;;;;;5103892;28;20113;-62
2023/05/12 00:21:55;;;;;;;59.88;19.92;;;13.10;99.90;;;;;;5107686;28;20020;-63
2023/05/12 00:24:21;;;;;;;64.30;22.08;;;13.10;99.90;;;;;;5108659;28;20024;-64
2023/05/12 00:26:46;;;;;;;70.10;22.10;;;13.20;99.90;;;;;;5108683;28;20103;-64
2023/05/12 00:29:12;;;;;;;68.68;23.35;;;13.20;99.90;;;;;;5109252;28;20032;-63
2023/05/12 00:31:37;;;;;;;83.18;24.85;;;13.20;99.90;;;;;;5109212;28;20084;-62
2023/05/12 00:34:03;;;;;;;68.45;21.83;;;13.20;99.90;;;;;;5105121;28;20055;-63
2023/05/12 00:36:29;;;;;;;78.90;24.85;;;13.20;99.90;;;;;;5106890;28;20122;-63
2023/05/12 00:38:55;;;;;;;81.10;25.02;;;13.20;99.90;;;;;;5103278;28;20485;-61
2023/05/12 00:41:21;;;;;;;90.72;27.40;;;13.30;99.90;;;;;;5105279;28;20032;-62
2023/05/12 00:43:46;;;;;;;69.53;23.55;;;13.30;99.90;;;;;;5107746;28;20016;-63
2023/05/12 00:46:12;;;;;;;69.65;24.92;;;13.30;99.90;;;;;;5110469;27;20023;-63
2023/05/12 00:48:38;;;;;;;79.43;26.08;;;13.30;99.90;;;;;;5112184;28;20152;-63
2023/05/12 00:51:05;;;;;;;72.75;26.23;;;13.30;99.90;;;;;;5111529;28;20152;-64
2023/05/12 00:53:31;;;;;;;80.05;26.20;;;13.40;99.90;;;;;;5110314;28;20485;-63
2023/05/12 00:55:57;;;;;;;78.68;25.65;;;13.40;99.90;;;;;;5110990;28;20489;-62
2023/05/12 00:58:23;;;;;;;82.25;25.55;;;13.40;99.90;;;;;;5108950;28;20035;-63
2023/05/12 01:00:48;;;;;;;75.82;26.20;;;13.40;99.90;;;;;;5108898;28;20028;-63
2023/05/12 01:03:14;;;;;;;73.20;25.98;;;13.40;99.90;;;;;;5112113;28;20019;-63
2023/05/12 01:06:20;;;;;;;76.78;25.13;;;13.40;99.90;;;;;;5111820;28;20035;-63
2023/05/12 01:08:46;;;;;;;71.95;24.33;;;13.40;99.90;;;;;;5065868;28;20112;-61
2023/05/12 01:11:12;;;;;;;75.55;24.08;;;13.40;99.90;;;;;;5106842;28;20051;-61
2023/05/12 01:13:40;;;;;;;79.25;26.13;;;13.40;99.90;;;;;;5113245;27;20550;-62
2023/05/12 01:16:08;;;;;;;73.63;27.08;;;13.40;99.90;;;;;;5109920;28;20385;-62
2023/05/12 01:18:36;;;;;;;84.60;26.55;;;13.40;99.90;;;;;;5106955;28;20122;-63
2023/05/12 01:21:03;;;;;;;67.60;23.98;;;13.40;99.90;;;;;;5110586;28;20018;-62
2023/05/12 01:23:36;;;;;;;74.03;23.88;;;13.40;99.90;;;;;;5110363;28;20504;-62
2023/05/12 01:26:07;;;;;;;77.95;27.23;;;13.40;99.90;;;;;;5110501;28;20027;-62
2023/05/12 01:28:34;;;;;;;70.85;24.83;;;13.40;99.90;;;;;;5110118;28;20043;-62
2023/05/12 01:31:02;;;;;;;83.50;25.75;;;13.40;99.90;;;;;;5110832;28;20152;-62
2023/05/12 01:33:27;;;;;;;70.63;25.30;;;13.40;99.90;;;;;;5112283;28;20028;-63
2023/05/12 01:35:53;;;;;;;71.03;25.40;;;13.40;99.90;;;;;;5111021;28;20023;-63
2023/05/12 01:38:19;;;;;;;69.78;24.42;;;13.40;99.90;;;;;;5108087;28;20032;-63
2023/05/12 01:40:44;;;;;;;75.18;24.48;;;13.40;99.90;;;;;;5106767;28;20019;-64
2023/05/12 01:43:10;;;;;;;75.53;23.45;;;13.30;99.90;;;;;;5108558;28;20027;-62
2023/05/12 01:45:35;;;;;;;80.28;24.80;;;13.40;99.90;;;;;;5107268;28;20438;-65
2023/05/12 01:48:01;;;;;;;75.93;24.60;;;13.40;99.90;;;;;;5107181;28;20035;-63
2023/05/12 01:50:26;;;;;;;80.05;26.75;;;13.40;99.90;;;;;;5110107;28;20027;-62
2023/05/12 01:52:52;;;;;;;81.63;22.80;;;13.30;99.90;;;;;;5109362;28;20062;-62
2023/05/12 01:55:17;;;;;;;91.97;25.05;;;13.40;99.90;;;;;;5109450;28;20028;-63
2023/05/12 01:57:43;;;;;;;66.53;22.30;;;13.30;99.90;;;;;;5109747;28;20067;-64
2023/05/12 02:00:09;;;;;;;63.58;22.30;;;13.30;99.90;;;;;;5109621;27;20301;-63
2023/05/12 02:02:35;;;;;;;73.40;22.58;;;13.40;99.90;;;;;;5109680;28;20020;-62
2023/05/12 02:05:00;;;;;;;70.90;23.13;;;13.40;99.90;;;;;;5110210;28;20362;-63
2023/05/12 02:07:26;;;;;;;68.20;21.60;;;13.40;99.90;;;;;;5108164;28;20019;-63
2023/05/12 02:09:52;;;;;;;59.88;20.50;;;13.40;99.90;;;;;;5108103;28;20034;-63
2023/05/12 02:12:17;;;;;;;60.83;19.83;;;13.40;99.90;;;;;;5110223;28;20042;-63
2023/05/12 02:14:43;;;;;;;54.90;20.08;;;13.40;99.90;;;;;;5107117;28;20066;-63
2023/05/12 02:17:08;;;;;;;56.70;19.17;;;13.50;99.90;;;;;;5106369;28;20036;-63
2023/05/12 02:19:34;;;;;;;47.60;18.83;;;13.50;99.90;;;;;;5105686;28;20028;-62
2023/05/12 02:21:59;;;;;;;53.65;19.85;;;13.50;99.90;;;;;;5109244;28;20064;-64
2023/05/12 02:24:25;;;;;;;53.33;18.25;;;13.40;99.90;;;;;;5108949;28;20385;-62
2023/05/12 02:26:50;;;;;;;50.13;18.60;;;13.40;99.90;;;;;;5105949;28;20023;-61
2023/05/12 02:29:16;;;;;;;56.42;19.15;;;13.40;99.90;;;;;;5105651;28;20557;-63
2023/05/12 02:31:42;;;;;;;50.42;19.52;;;13.40;99.90;;;;;;5109350;28;20016;-63
2023/05/12 02:34:08;;;;;;;52.78;18.23;;;13.40;99.90;;;;;;5110123;28;20393;-62
2023/05/12 02:36:33;;;;;;;42.20;16.75;;;13.40;99.90;;;;;;5108975;28;20047;-64
2023/05/12 02:38:59;;;;;;;47.25;17.02;;;13.50;99.90;;;;;;5107150;28;20032;-63
2023/05/12 02:41:25;;;;;;;54.00;17.73;;;13.50;99.90;;;;;;5109256;28;20588;-62
2023/05/12 02:43:50;;;;;;;46.50;17.48;;;13.50;99.90;;;;;;5109092;28;20111;-63
2023/05/12 02:46:16;;;;;;;49.92;20.73;;;13.50;99.90;;;;;;5109303;28;20015;-64
2023/05/12 02:48:41;;;;;;;48.08;18.73;;;13.50;99.90;;;;;;5109450;28;20053;-64
2023/05/12 02:51:07;;;;;;;55.13;17.50;;;13.50;99.90;;;;;;5111075;28;20068;-63
2023/05/12 02:53:32;;;;;;;50.72;19.00;;;13.50;99.90;;;;;;5109067;28;20160;-64
2023/05/12 02:55:58;;;;;;;46.72;17.80;;;13.60;99.90;;;;;;5109674;28;20035;-60
2023/05/12 02:58:24;;;;;;;50.15;18.08;;;13.60;99.90;;;;;;5109129;28;20410;-63
2023/05/12 03:00:49;;;;;;;44.08;17.42;;;13.60;99.90;;;;;;5109002;28;20386;-64
2023/05/12 03:03:15;;;;;;;47.97;18.90;;;13.60;99.90;;;;;;5110355;28;20031;-63
2023/05/12 03:05:40;;;;;;;51.50;18.65;;;13.50;99.90;;;;;;5110282;28;20038;-62
2023/05/12 03:08:06;;;;;;;48.75;17.83;;;13.60;99.90;;;;;;5107095;28;20023;-61
2023/05/12 03:10:31;;;;;;;51.88;18.75;;;13.60;99.90;;;;;;5106196;28;20136;-64
2023/05/12 03:12:57;;;;;;;47.15;19.88;;;13.60;99.90;;;;;;5108069;28;20020;-63
2023/05/12 03:15:23;;;;;;;47.42;17.40;;;13.60;99.90;;;;;;5105991;28;20054;-63
2023/05/12 03:17:48;;;;;;;53.42;18.27;;;13.60;99.90;;;;;;5108225;28;20563;-62
2023/05/12 03:20:14;;;;;;;46.00;18.52;;;13.60;99.90;;;;;;5108787;28;20023;-62
2023/05/12 03:22:40;;;;;;;49.38;18.98;;;13.60;99.90;;;;;;5109985;28;20019;-62
2023/05/12 03:25:08;;;;;;;47.08;17.38;;;13.60;99.90;;;;;;5110424;28;20043;-62
2023/05/12 03:27:33;;;;;;;47.28;19.15;;;13.60;99.90;;;;;;5109069;28;20120;-61
2023/05/12 03:30:03;;;;;;;58.33;19.58;;;13.60;99.90;;;;;;5107257;28;20430;-62
2023/05/12 03:32:29;;;;;;;35.22;14.00;;;13.60;99.90;;;;;;5106667;28;20034;-63
2023/05/12 03:34:55;;;;;;;34.50;13.38;;;13.60;99.90;;;;;;5107727;28;20020;-64
2023/05/12 03:37:21;;;;;;;29.58;12.45;;;13.50;99.90;;;;;;5109388;28;20053;-61
2023/05/12 03:39:47;;;;;;;36.88;13.13;;;13.60;99.90;;;;;;5105922;28;20404;-61
2023/05/12 03:42:13;;;;;;;31.45;12.80;;;13.60;99.90;;;;;;5107178;28;20015;-62
2023/05/12 03:44:38;;;;;;;36.78;12.38;;;13.60;99.90;;;;;;5105421;28;20388;-60
2023/05/12 03:47:04;;;;;;;28.92;11.93;;;13.50;99.90;;;;;;5105769;28;20028;-63
2023/05/12 03:49:29;;;;;;;34.83;12.32;;;13.50;99.90;;;;;;5108287;28;20132;-59
2023/05/12 03:51:55;;;;;;;33.15;12.20;;;13.50;99.90;;;;;;5107719;28;20019;-60
2023/05/12 03:54:21;;;;;;;29.02;11.68;;;13.50;99.90;;;;;;5109062;28;20442;-61
2023/05/12 03:56:46;;;;;;;36.33;12.05;;;13.50;99.90;;;;;;5108870;28;20032;-63
2023/05/12 03:59:12;;;;;;;27.05;11.55;;;13.50;99.90;;;;;;5106141;28;20312;-61
2023/05/12 04:01:37;;;;;;;35.17;12.05;;;13.60;99.90;;;;;;5108747;28;20016;-61
2023/05/12 04:04:03;;;;;;;33.03;11.70;;;13.60;99.90;;;;;;5109086;28;20027;-61
2023/05/12 04:06:30;;;;;;;27.25;10.80;;;13.60;99.90;;;;;;5109801;28;20055;-65
2023/05/12 04:08:55;;;;;;;27.60;11.10;;;13.50;99.90;;;;;;5108785;28;20401;-63
2023/05/12 04:11:22;;;;;;;26.88;11.38;;;13.50;99.90;;;;;;5108289;28;20023;-62
2023/05/12 04:13:47;;;;;;;28.08;12.00;;;13.50;99.90;;;;;;5106650;28;20495;-60
2023/05/12 04:16:13;;;;;;;31.25;11.38;;;13.50;99.90;;;;;;5106026;28;20055;-63
2023/05/12 04:18:38;;;;;;;19.00;8.98;;;13.40;99.90;;;;;;5106526;28;20032;-62
2023/05/12 04:21:04;;;;;;;18.48;8.85;;;13.40;99.90;;;;;;5107632;28;20028;-64
2023/05/12 04:23:30;;;;;;;22.98;9.65;;;13.30;99.90;;;;;;5107970;28;20084;-64
2023/05/12 04:25:55;;;;;;;22.52;9.45;;;13.30;99.90;;;;;;5109934;27;20429;-62
2023/05/12 04:28:21;;;;;;;19.63;8.98;;;13.30;99.90;;;;;;5109880;28;20036;-64
2023/05/12 04:30:46;;;;;;;23.63;8.60;;;13.30;99.90;;;;;;5111566;28;20554;-64
2023/05/12 04:33:12;;;;;;;18.08;8.45;;;13.30;99.90;;;;;;5112184;28;20465;-63
2023/05/12 04:35:38;;;;;;;15.80;6.90;;;13.30;99.90;;;;;;5107243;28;20023;-64
2023/05/12 04:38:03;;;;;;;19.52;7.72;;;13.30;99.90;;;;;;5111043;28;20028;-64
2023/05/12 04:40:29;;;;;;;13.27;7.18;;;13.30;99.90;;;;;;5109751;28;20452;-64
2023/05/12 04:42:55;;;;;;;14.88;7.10;;;13.30;99.90;;;;;;5110433;28;20086;-59
2023/05/12 04:45:20;;;;;;;13.40;6.28;;;13.20;99.90;;;;;;5108132;28;20045;-59
2023/05/12 04:47:46;;;;;;;12.85;5.22;;;13.30;99.90;;;;;;5108724;28;20418;-62
2023/05/12 04:50:12;;;;;;;9.18;4.68;;;13.20;99.90;;;;;;5108926;28;20121;-61
2023/05/12 04:52:37;;;;;;;12.52;5.35;;;13.20;99.90;;;;;;5104300;28;20063;-62
2023/05/12 04:55:04;;;;;;;10.80;5.90;;;13.30;99.90;;;;;;5107534;28;20082;-60
2023/05/12 04:57:30;;;;;;;9.85;5.20;;;13.20;99.90;;;;;;5111503;28;20446;-62
2023/05/12 04:59:57;;;;;;;9.60;5.60;;;13.30;99.90;;;;;;5106964;28;20036;-62
2023/05/12 05:02:23;;;;;;;15.70;5.22;;;13.20;99.90;;;;;;5110492;28;20016;-63
2023/05/12 05:04:49;;;;;;;12.57;5.05;;;13.20;99.90;;;;;;5108278;28;20099;-59
2023/05/12 05:07:15;;;;;;;9.27;5.07;;;13.20;99.90;;;;;;5107158;28;20106;-59
2023/05/12 05:09:40;;;;;;;11.93;6.50;;;13.30;99.90;;;;;;5108301;28;20055;-60
2023/05/12 05:12:06;;;;;;;10.18;5.47;;;13.30;99.90;;;;;;5111192;28;20114;-61
2023/05/12 05:14:32;;;;;;;10.85;5.65;;;13.30;99.90;;;;;;5111386;27;20040;-61
2023/05/12 05:16:58;;;;;;;6.80;4.85;;;13.30;99.90;;;;;;5110140;28;20106;-60
2023/05/12 05:19:25;;;;;;;9.23;5.38;;;13.30;99.90;;;;;;5111139;28;20435;-61
2023/05/12 05:21:50;;;;;;;9.60;4.32;;;13.30;99.90;;;;;;5112083;28;20098;-60
2023/05/12 05:24:16;;;;;;;6.85;4.13;;;13.30;99.90;;;;;;5110263;28;20450;-61
2023/05/12 05:26:41;;;;;;;7.13;5.05;;;13.20;99.90;;;;;;5109285;28;20155;-61
2023/05/12 05:29:07;;;;;;;13.88;5.40;;;13.30;99.90;;;;;;5108803;28;20054;-59
2023/05/12 05:31:33;;;;;;;10.30;4.90;;;13.30;99.90;;;;;;5110781;28;20100;-61
2023/05/12 05:33:58;;;;;;;6.85;4.68;;;13.30;99.90;;;;;;5112241;28;20039;-62
2023/05/12 05:36:26;;;;;;;10.30;4.45;;;13.30;99.90;;;;;;5108771;27;20035;-62
2023/05/12 05:38:52;;;;;;;8.63;4.30;;;13.30;99.90;;;;;;5109353;28;20111;-61
2023/05/12 05:41:18;;;;;;;7.25;4.35;;;13.30;99.90;;;;;;5106965;28;20103;-60
2023/05/12 05:43:43;;;;;;;7.45;4.95;;;13.30;99.90;;;;;;5107820;28;20059;-62
2023/05/12 05:46:09;;;;;;;9.25;4.88;;;13.30;99.90;;;;;;5108752;28;20426;-62
2023/05/12 05:48:38;;;;;;;10.95;5.80;;;13.20;99.90;;;;;;5111008;28;20024;-62
2023/05/12 05:51:04;;;;;;;7.90;5.10;;;13.30;99.90;;;;;;5110621;28;20051;-61
2023/05/12 05:53:30;;;;;;;10.05;5.10;;;13.30;99.90;;;;;;5111255;28;20031;-60
2023/05/12 05:55:56;;;;;;;11.80;5.57;;;13.30;99.90;;;;;;5112761;28;20019;-59
2023/05/12 05:58:21;;;;;;;8.30;5.15;;;13.30;99.90;;;;;;5110837;28;20063;-61
2023/05/12 06:00:47;;;;;;;9.02;5.25;;;13.30;99.90;;;;;;5110835;28;20031;-62
2023/05/12 06:03:12;;;;;;;8.25;5.10;;;13.20;99.90;;;;;;5110969;28;20026;-62
2023/05/12 06:05:38;;;;;;;14.25;5.70;;;13.20;99.90;;;;;;5111695;28;20106;-63
2023/05/12 06:08:08;;;;;;;16.25;5.60;;;13.20;99.90;;;;;;5111510;28;20023;-61
2023/05/12 06:10:33;;;;;;;8.75;4.63;;;13.20;99.90;;;;;;5111770;28;20473;-62
2023/05/12 06:12:59;;;;;;;9.82;5.43;;;13.20;99.90;;;;;;5112455;28;20035;-64
2023/05/12 06:15:24;;;;;;;10.15;5.07;;;13.30;99.90;;;;;;5111909;28;20024;-60
2023/05/12 06:17:50;;;;;;;9.73;5.60;;;13.20;99.90;;;;;;5108791;28;20027;-60
2023/05/12 06:20:15;;;;;;;8.75;5.50;;;13.20;99.90;;;;;;5110313;28;20459;-63
2023/05/12 06:22:41;;;;;;;10.82;6.57;;;13.20;99.90;;;;;;5112000;28;20446;-62
2023/05/12 06:25:07;;;;;;;11.57;5.35;;;13.20;99.90;;;;;;5110514;28;20027;-62
2023/05/12 06:27:33;;;;;;;12.95;6.20;;;13.30;99.90;;;;;;5110599;28;20095;-62
2023/05/12 06:29:58;;;;;;;8.82;5.80;;;13.30;99.90;;;;;;5110108;28;20068;-62
2023/05/12 06:32:24;;;;;;;9.48;6.20;;;13.40;99.90;;;;;;5108975;28;20093;-61
2023/05/12 06:34:49;;;;;;;8.07;5.60;;;13.30;99.90;;;;;;5111018;28;20039;-58
2023/05/12 06:37:15;;;;;;;9.13;5.80;;;13.30;99.90;;;;;;5111182;28;20019;-60
2023/05/12 06:39:40;;;;;;;10.75;4.55;;;13.30;99.90;;;;;;5111467;28;20426;-60
2023/05/12 06:42:06;;;;;;;7.40;4.57;;;13.30;99.90;;;;;;5111513;28;20016;-60
2023/05/12 06:44:31;;;;;;;9.85;5.93;;;13.40;99.90;;;;;;5110865;28;20036;-61
2023/05/12 06:46:57;;;;;;;7.45;4.90;;;13.50;99.90;;;;;;5110450;28;20016;-61
2023/05/12 06:49:23;;;;;;;8.65;5.32;;;13.50;99.90;;;;;;5109709;28;20168;-61
2023/05/12 06:51:48;;;;;;;9.18;5.75;;;13.60;99.90;;;;;;5109699;28;20438;-62
2023/05/12 06:54:14;;;;;;;9.07;4.45;;;13.60;99.90;;;;;;5109325;28;20441;-61
2023/05/12 06:56:39;;;;;;;9.35;5.07;;;13.50;99.90;;;;;;5111536;28;20538;-62
2023/05/12 06:59:05;;;;;;;5.55;3.92;;;13.60;99.90;;;;;;5111017;28;20030;-63
2023/05/12 07:01:31;;;;;;;8.02;4.43;;;13.60;99.90;;;;;;5109063;28;20113;-61
2023/05/12 07:03:58;;;;;;;7.95;4.43;;;13.70;99.90;;;;;;5102939;28;20110;-60
2023/05/12 07:06:26;;;;;;;9.48;4.05;;;13.80;99.90;;;;;;5106576;28;20535;-62
2023/05/12 07:08:52;;;;;;;6.95;4.18;;;13.90;99.90;;;;;;5108472;28;20036;-61
2023/05/12 07:11:18;;;;;;;5.28;3.95;;;13.90;99.90;;;;;;5103703;28;20028;-61
2023/05/12 07:13:49;;;;;;;11.57;3.95;;;13.90;99.90;;;;;;5109079;28;20032;-62
2023/05/12 07:16:16;;;;;;;6.20;4.05;;;14.00;99.90;;;;;;5107731;28;20084;-61
2023/05/12 07:18:42;;;;;;;11.30;3.45;;;14.00;99.90;;;;;;5108016;28;20023;-61
2023/05/12 07:21:08;;;;;;;6.20;4.10;;;14.10;99.90;;;;;;5106883;28;20474;-59
2023/05/12 07:23:34;;;;;;;11.93;4.32;;;14.10;99.90;;;;;;5107911;28;20068;-59
2023/05/12 07:26:02;;;;;;;5.10;3.95;;;14.10;99.90;;;;;;5108696;28;20389;-58
2023/05/12 07:28:31;;;;;;;7.97;4.18;;;14.20;99.90;;;;;;5106457;28;20072;-60
2023/05/12 07:30:57;;;;;;;7.47;4.55;;;14.20;99.90;;;;;;5107332;28;20031;-61
2023/05/12 07:33:23;;;;;;;11.75;4.20;;;14.30;99.90;;;;;;5106907;28;20040;-59
2023/05/12 07:35:48;;;;;;;5.28;3.58;;;14.20;99.90;;;;;;5106217;28;20281;-59
2023/05/12 07:38:14;;;;;;;6.65;3.90;;;14.30;99.90;;;;;;5103985;28;20345;-55
2023/05/12 07:40:39;;;;;;;10.82;4.03;;;14.30;99.90;;;;;;5106518;28;20476;-60
2023/05/12 07:43:05;;;;;;;8.23;3.80;;;14.30;99.90;;;;;;5109321;28;20031;-60
2023/05/12 07:45:30;;;;;;;4.63;3.75;;;14.50;99.90;;;;;;5108199;28;20027;-60
2023/05/12 07:47:56;;;;;;;5.68;4.22;;;14.50;99.90;;;;;;5108044;28;20028;-61
2023/05/12 07:50:21;;;;;;;9.30;4.30;;;14.50;99.90;;;;;;5105911;28;20077;-60
2023/05/12 07:52:52;;;;;;;11.00;4.10;;;14.50;99.90;;;;;;5107855;28;20031;-61
2023/05/12 07:55:19;;;;;;;6.90;4.00;;;14.60;99.90;;;;;;5108554;28;20054;-58
2023/05/12 07:57:45;;;;;;;4.82;3.80;;;14.60;99.90;;;;;;5110599;28;20016;-61
2023/05/12 08:00:11;;;;;;;4.97;3.28;;;14.70;99.90;;;;;;5110967;28;20019;-59
2023/05/12 08:02:37;;;;;;;10.55;3.83;;;14.70;99.90;;;;;;5111906;28;20029;-60
2023/05/12 08:05:03;;;;;;;10.52;4.10;;;14.80;99.90;;;;;;5114556;28;20106;-61
2023/05/12 08:07:28;;;;;;;5.90;2.65;;;14.80;99.90;;;;;;5111837;28;20077;-60
2023/05/12 08:09:54;;;;;;;5.75;4.05;;;14.80;99.90;;;;;;5112644;28;20023;-61
2023/05/12 08:12:20;;;;;;;6.20;3.20;;;14.90;99.90;;;;;;5113317;28;20031;-62
2023/05/12 08:14:46;;;;;;;4.35;3.25;;;15.10;99.90;;;;;;5111602;28;20465;-59
2023/05/12 08:17:11;;;;;;;8.93;3.33;;;15.20;99.90;;;;;;5111556;28;20042;-61
2023/05/12 08:19:37;;;;;;;6.22;3.15;;;15.20;99.90;;;;;;5111945;27;20031;-61
2023/05/12 08:22:03;;;;;;;5.82;2.90;;;15.20;99.90;;;;;;5112469;28;20027;-62
2023/05/12 08:24:29;;;;;;;4.03;2.85;;;15.30;99.90;;;;;;5109205;28;20450;-61
2023/05/12 08:26:54;;;;;;;4.40;2.38;;;15.40;99.90;;;;;;5112472;28;20035;-61
2023/05/12 08:29:20;;;;;;;4.05;2.75;;;15.40;99.90;;;;;;5110098;28;20487;-58
2023/05/12 08:31:46;;;;;;;3.20;2.13;;;15.40;99.90;;;;;;5111499;28;20031;-62
2023/05/12 08:34:11;;;;;;;4.72;2.38;;;15.30;99.90;;;;;;5109240;28;20020;-61
2023/05/12 08:36:38;;;;;;;4.22;2.80;;;15.20;99.90;;;;;;5112661;28;20481;-62
2023/05/12 08:39:04;;;;;;;5.25;2.53;;;15.30;99.90;;;;;;5110090;28;20032;-60
2023/05/12 08:41:33;;;;;;;4.43;2.10;;;15.20;99.90;;;;;;5112416;28;20045;-62
2023/05/12 08:43:59;;;;;;;2.33;1.80;;;15.30;99.90;;;;;;5114060;28;20024;-62
2023/05/12 08:46:25;;;;;;;6.20;2.17;;;15.40;99.90;;;;;;5111919;28;20127;-62
2023/05/12 08:48:52;;;;;;;7.55;2.00;;;15.60;99.90;;;;;;5113809;28;20641;-60
2023/05/12 08:51:18;;;;;;;4.15;1.85;;;15.90;99.90;;;;;;5107740;28;20023;-62
2023/05/12 08:53:47;;;;;;;4.38;2.20;;;16.10;99.90;;;;;;5112739;28;20055;-60
2023/05/12 08:56:16;;;;;;;3.42;1.77;;;16.40;99.90;;;;;;5112864;28;20023;-62
2023/05/12 08:58:44;;;;;;;5.72;2.20;;;16.60;99.90;;;;;;5113584;28;20103;-61
2023/05/12 09:01:10;;;;;;;2.53;2.25;;;16.70;99.90;;;;;;5111837;28;20072;-60
2023/05/12 09:03:36;;;;;;;2.15;1.70;;;16.70;99.90;;;;;;5111885;28;20506;-61
2023/05/12 09:06:04;;;;;;;7.00;1.92;;;16.50;99.90;;;;;;5111699;28;20236;-60
2023/05/12 09:08:33;;;;;;;3.00;2.15;;;16.50;99.90;;;;;;5110207;28;20031;-61
2023/05/12 09:11:00;;;;;;;7.03;1.92;;;16.40;99.90;;;;;;5111414;28;20508;-60
2023/05/12 09:13:48;;;;;;;1.92;1.60;;;16.30;99.90;;;;;;5112110;28;20072;-61
2023/05/12 09:16:19;;;;;;;4.30;2.35;;;16.30;99.90;;;;;;5112710;28;20039;-62
2023/05/12 09:18:52;;;;;;;4.45;2.13;;;16.40;99.90;;;;;;5111120;28;20027;-61
2023/05/12 09:21:18;;;;;;;6.55;2.28;;;16.70;99.90;;;;;;5110163;28;20020;-62
2023/05/12 09:24:04;;;;;;;4.43;1.48;;;16.80;99.90;;;;;;5111617;28;20028;-61
2023/05/12 09:26:42;;;;;;;4.53;1.52;;;17.10;99.90;;;;;;5110932;28;20145;-62
2023/05/12 09:29:08;;;;;;;3.30;1.23;;;17.10;99.90;;;;;;5113132;28;20020;-61
2023/05/12 09:31:34;;;;;;;5.35;1.77;;;17.20;99.90;;;;;;5111896;28;20172;-62
2023/05/12 09:34:01;;;;;;;3.65;1.88;;;17.40;99.90;;;;;;5112208;28;20042;-61
2023/05/12 09:36:27;;;;;;;2.00;1.80;;;17.70;99.90;;;;;;5112747;28;20020;-60
2023/05/12 09:39:00;;;;;;;9.30;2.03;;;17.80;99.90;;;;;;5109750;28;20515;-61
2023/05/12 09:41:26;;;;;;;5.47;1.88;;;18.00;99.90;;;;;;5111744;28;20018;-62
2023/05/12 09:43:52;;;;;;;7.05;2.67;;;17.90;99.90;;;;;;5113149;28;20436;-62
2023/05/12 09:46:17;;;;;;;3.00;1.73;;;17.80;99.90;;;;;;5111709;28;20020;-62
2023/05/12 09:48:46;;;;;;;2.00;1.77;;;17.90;99.90;;;;;;5106405;28;20026;-61
2023/05/12 09:51:17;;;;;;;2.53;1.60;;;18.00;99.90;;;;;;5108371;28;20035;-63
2023/05/12 09:53:43;;;;;;;6.05;2.40;;;18.00;99.90;;;;;;5112811;28;20032;-62
2023/05/12 09:56:11;;;;;;;2.58;1.90;;;18.30;99.90;;;;;;5108709;28;20102;-62
2023/05/12 09:58:45;;;;;;;3.38;2.10;;;18.50;99.90;;;;;;5110416;28;20412;-60
2023/05/12 10:01:15;;;;;;;1.77;1.52;;;18.70;99.90;;;;;;5110446;28;20073;-63
2023/05/12 10:03:42;;;;;;;1.75;1.52;;;18.70;99.90;;;;;;5111890;27;20073;-59
2023/05/12 10:06:13;;;;;;;1.92;1.73;;;18.80;99.90;;;;;;5111489;27;20412;-61
2023/05/12 10:08:49;;;;;;;5.07;1.95;;;18.60;99.90;;;;;;5110603;28;20043;-62
2023/05/12 10:11:16;;;;;;;3.15;1.75;;;18.30;99.90;;;;;;5110000;28;20080;-59
2023/05/12 10:13:42;;;;;;;4.00;2.60;;;18.30;99.90;;;;;;5111337;28;20073;-60
2023/05/12 10:16:08;;;;;;;5.68;2.08;;;18.20;99.90;;;;;;5102351;28;20434;-55
2023/05/12 10:18:34;;;;;;;4.13;1.98;;;18.20;99.90;;;;;;5107728;28;20451;-60
2023/05/12 10:21:01;;;;;;;4.05;2.13;;;18.50;99.90;;;;;;5106476;28;20439;-61
2023/05/12 10:23:27;;;;;;;2.35;2.15;;;18.60;99.90;;;;;;5104946;28;20015;-60
2023/05/12 10:26:00;;;;;;;4.13;2.25;;;18.60;99.90;;;;;;5106867;28;20477;-61
2023/05/12 10:28:27;;;;;;;3.88;1.95;;;18.40;99.90;;;;;;5106369;28;20035;-60
2023/05/12 10:30:53;;;;;;;3.83;2.17;;;18.60;99.90;;;;;;5109448;28;20027;-59
2023/05/12 10:33:19;;;;;;;6.95;2.20;;;18.70;99.90;;;;;;5104597;28;20060;-59
2023/05/12 10:35:44;;;;;;;9.65;2.40;;;18.60;99.90;;;;;;5107744;28;20027;-60
2023/05/12 10:38:15;;;;;;;3.45;2.00;;;18.60;99.90;;;;;;5110321;28;20043;-60
2023/05/12 10:41:00;;;;;;;3.83;2.22;;;18.50;99.90;;;;;;5108250;28;20051;-59
2023/05/12 10:43:41;;;;;;;5.18;1.95;;;18.60;99.90;;;;;;5107503;28;20024;-52
2023/05/12 10:46:16;;;;;;;6.65;1.77;;;19.00;99.90;;;;;;5106001;28;20383;-61
2023/05/12 10:48:55;;;;;;;5.80;2.13;;;19.30;99.90;;;;;;5105387;28;20032;-55
2023/05/12 10:51:43;;;;;;;2.90;1.85;;;19.80;99.90;;;;;;5108438;28;20035;-62
2023/05/12 10:54:10;;;;;;;3.20;2.17;;;20.20;99.90;;;;;;5106248;28;20026;-59
2023/05/12 10:56:36;;;;;;;4.68;2.15;;;20.50;99.90;;;;;;5111360;28;20023;-59
2023/05/12 10:59:16;;;;;;;6.90;2.08;;;20.70;99.90;;;;;;5108158;28;20038;-61
2023/05/12 11:02:01;;;;;;;6.35;1.65;;;21.00;99.90;;;;;;5106655;28;20019;-59
2023/05/12 11:04:46;;;;;;;4.10;2.15;;;21.00;99.90;;;;;;5107299;28;20020;-57
2023/05/12 11:07:12;;;;;;;;;;;20.80;99.90;;;;;;5107289;28;20507;-59
2023/05/12 11:09:40;;;;;;;3.20;1.98;;;20.90;99.90;;;;;;5108653;28;19907;-60
2023/05/12 11:12:08;;;;;;;5.13;2.03;;;20.80;99.90;;;;;;5108235;28;20024;-59
2023/05/12 11:14:34;;;;;;;9.65;2.63;;;20.60;99.90;;;;;;5107595;28;20027;-57
2023/05/12 11:17:00;;;;;;;6.93;2.33;;;19.80;99.90;;;;;;5108446;28;20034;-60
2023/05/12 11:19:27;;;;;;;6.00;2.15;;;19.70;99.90;;;;;;5108486;28;20031;-59
2023/05/12 11:21:54;;;;;;;2.85;2.22;;;19.30;99.90;;;;;;5109490;28;20418;-56
2023/05/12 11:24:20;;;;;;;3.17;2.28;;;19.00;99.90;;;;;;5107486;28;20051;-59
2023/05/12 11:26:50;;;;;;;2.65;1.92;;;18.80;99.90;;;;;;5110486;28;20498;-59
2023/05/12 11:29:19;;;;;;;2.58;1.77;;;18.90;99.90;;;;;;5105448;28;20016;-59
2023/05/12 11:31:51;;;;;;;2.67;2.38;;;19.00;99.90;;;;;;5105907;28;20035;-57
2023/05/12 11:34:22;;;;;;;5.38;1.73;;;19.00;99.90;;;;;;5104995;28;20028;-59
2023/05/12 11:36:49;;;;;;;3.30;2.10;;;19.00;99.90;;;;;;5108494;28;20023;-59
2023/05/12 11:39:22;;;;;;;4.47;2.35;;;19.00;99.90;;;;;;5099087;28;20027;-56
2023/05/12 11:41:49;;;;;;;3.53;2.33;;;19.10;99.90;;;;;;5108321;28;20050;-60
2023/05/12 11:44:20;;;;;;;8.38;2.65;;;19.10;99.90;;;;;;5103866;28;20481;-60
2023/05/12 11:47:03;;;;;;;3.55;2.30;;;19.20;99.90;;;;;;5107641;28;20039;-60
2023/05/12 11:49:30;;;;;;;11.65;2.20;;;19.40;99.90;;;;;;5102148;28;20036;-61
2023/05/12 11:51:58;;;;;;;2.58;2.30;;;19.70;99.90;;;;;;5104143;28;20128;-61
2023/05/12 11:54:24;;;;;;;4.88;2.92;;;19.80;99.90;;;;;;5102983;28;20039;-60
2023/05/12 11:56:51;;;;;;;4.10;2.25;;;19.70;99.90;;;;;;5101170;28;20401;-60
2023/05/12 11:59:27;;;;;;;5.35;2.53;;;19.40;99.90;;;;;;5101440;28;20481;-58
2023/05/12 12:01:52;;;;;;;2.75;1.98;;;19.50;99.90;;;;;;5105987;28;21469;-61
2023/05/12 12:04:29;;;;;;;4.65;2.17;;;19.80;99.90;;;;;;5104258;28;20034;-59
2023/05/12 12:06:54;;;;;;;3.50;2.33;;;20.30;99.90;;;;;;5099904;28;20056;-61
2023/05/12 12:09:29;;;;;;;2.80;2.00;;;20.60;99.90;;;;;;5102180;28;20116;-61
2023/05/12 12:11:55;;;;;;;4.50;2.20;;;21.10;99.90;;;;;;5105021;28;20120;-59
2023/05/12 12:14:21;;;;;;;6.20;2.78;;;21.30;99.90;;;;;;5107951;28;20238;-60
2023/05/12 12:16:46;;;;;;;6.45;2.15;;;21.60;99.90;;;;;;5107493;28;20022;-60
2023/05/12 12:19:12;;;;;;;7.10;2.53;;;21.70;99.90;;;;;;5105049;28;20034;-60
2023/05/12 12:21:38;;;;;;;3.92;2.30;;;22.10;99.90;;;;;;5108704;28;20027;-61
2023/05/12 12:24:04;;;;;;;7.63;2.45;;;22.30;99.90;;;;;;5101470;28;20612;-60
2023/05/12 12:26:30;;;;;;;2.55;2.17;;;22.30;99.90;;;;;;5103598;28;20477;-61
2023/05/12 12:28:56;;;;;;;3.10;1.88;;;21.80;99.90;;;;;;5102015;28;20032;-60
2023/05/12 12:31:21;;;;;;;3.13;2.47;;;21.90;99.90;;;;;;5103564;28;20115;-59
2023/05/12 12:33:47;;;;;;;5.55;2.13;;;21.70;99.90;;;;;;5099608;28;20058;-59
2023/05/12 12:36:12;;;;;;;3.30;2.35;;;21.60;99.90;;;;;;5102222;28;20048;-57